sensor_id;sensor_type;location;lat;lon;timestamp;temperature;humidity
49731;DHT22;35622;52.008;5.426;2022-11-21T00:00:27;8.40;73.50
49731;DHT22;35622;52.008;5.426;2022-11-21T00:02:52;8.50;72.40
49731;DHT22;35622;52.008;5.426;2022-11-21T00:05:18;8.50;71.60
49731;DHT22;35622;52.008;5.426;2022-11-21T00:07:44;8.40;72.30
49731;DHT22;35622;52.008;5.426;2022-11-21T00:10:14;8.30;72.90
49731;DHT22;35622;52.008;5.426;2022-11-21T00:12:39;8.30;73.20
49731;DHT22;35622;52.008;5.426;2022-11-21T00:15:05;8.30;73.30
49731;DHT22;35622;52.008;5.426;2022-11-21T00:17:31;8.30;73.40
49731;DHT22;35622;52.008;5.426;2022-11-21T00:19:56;8.40;73.20
49731;DHT22;35622;52.008;5.426;2022-11-21T00:22:22;8.40;73.20
49731;DHT22;35622;52.008;5.426;2022-11-21T00:24:47;8.40;73.10
49731;DHT22;35622;52.008;5.426;2022-11-21T00:27:13;8.60;72.50
49731;DHT22;35622;52.008;5.426;2022-11-21T00:29:39;8.40;72.40
49731;DHT22;35622;52.008;5.426;2022-11-21T00:32:04;8.40;72.70
49731;DHT22;35622;52.008;5.426;2022-11-21T00:34:30;8.50;72.40
49731;DHT22;35622;52.008;5.426;2022-11-21T00:36:55;8.50;72.00
49731;DHT22;35622;52.008;5.426;2022-11-21T00:39:21;8.40;72.10
49731;DHT22;35622;52.008;5.426;2022-11-21T00:41:46;8.30;72.70
49731;DHT22;35622;52.008;5.426;2022-11-21T00:44:12;8.20;72.80
49731;DHT22;35622;52.008;5.426;2022-11-21T00:46:37;8.00;73.20
49731;DHT22;35622;52.008;5.426;2022-11-21T00:49:03;8.00;73.90
49731;DHT22;35622;52.008;5.426;2022-11-21T00:51:28;8.00;74.10
49731;DHT22;35622;52.008;5.426;2022-11-21T00:53:54;8.40;72.70
49731;DHT22;35622;52.008;5.426;2022-11-21T00:56:19;8.20;72.40
49731;DHT22;35622;52.008;5.426;2022-11-21T00:58:45;8.10;73.20
49731;DHT22;35622;52.008;5.426;2022-11-21T01:01:14;8.10;73.40
49731;DHT22;35622;52.008;5.426;2022-11-21T01:03:40;8.10;73.50
49731;DHT22;35622;52.008;5.426;2022-11-21T01:06:11;8.10;73.80
49731;DHT22;35622;52.008;5.426;2022-11-21T01:08:39;8.10;73.80
49731;DHT22;35622;52.008;5.426;2022-11-21T01:11:10;8.10;73.90
49731;DHT22;35622;52.008;5.426;2022-11-21T01:13:36;8.20;73.60
49731;DHT22;35622;52.008;5.426;2022-11-21T01:16:14;8.10;73.60
49731;DHT22;35622;52.008;5.426;2022-11-21T01:18:40;8.20;73.60
49731;DHT22;35622;52.008;5.426;2022-11-21T01:21:12;8.20;73.60
49731;DHT22;35622;52.008;5.426;2022-11-21T01:23:37;8.20;73.10
49731;DHT22;35622;52.008;5.426;2022-11-21T01:26:09;8.10;73.10
49731;DHT22;35622;52.008;5.426;2022-11-21T01:28:35;8.20;73.40
49731;DHT22;35622;52.008;5.426;2022-11-21T01:31:12;8.30;73.40
49731;DHT22;35622;52.008;5.426;2022-11-21T01:33:38;8.30;72.50
49731;DHT22;35622;52.008;5.426;2022-11-21T01:36:16;8.20;72.80
49731;DHT22;35622;52.008;5.426;2022-11-21T01:38:47;8.20;73.20
49731;DHT22;35622;52.008;5.426;2022-11-21T01:41:17;8.20;73.10
49731;DHT22;35622;52.008;5.426;2022-11-21T01:43:43;8.40;71.80
49731;DHT22;35622;52.008;5.426;2022-11-21T01:46:12;8.30;72.00
49731;DHT22;35622;52.008;5.426;2022-11-21T01:48:53;8.20;72.60
49731;DHT22;35622;52.008;5.426;2022-11-21T01:51:52;8.20;73.00
49731;DHT22;35622;52.008;5.426;2022-11-21T01:57:16;8.50;71.00
49731;DHT22;35622;52.008;5.426;2022-11-21T02:02:14;8.40;71.60
49731;DHT22;35622;52.008;5.426;2022-11-21T02:04:42;8.00;72.00
49731;DHT22;35622;52.008;5.426;2022-11-21T02:07:10;8.00;73.20
49731;DHT22;35622;52.008;5.426;2022-11-21T02:09:38;7.90;73.20
49731;DHT22;35622;52.008;5.426;2022-11-21T02:12:29;7.80;73.70
49731;DHT22;35622;52.008;5.426;2022-11-21T02:14:57;7.60;74.70
49731;DHT22;35622;52.008;5.426;2022-11-21T02:17:25;7.60;75.20
49731;DHT22;35622;52.008;5.426;2022-11-21T02:19:59;7.60;75.20
49731;DHT22;35622;52.008;5.426;2022-11-21T02:25:21;8.00;74.20
49731;DHT22;35622;52.008;5.426;2022-11-21T02:27:49;8.10;73.30
49731;DHT22;35622;52.008;5.426;2022-11-21T02:30:16;8.10;73.00
49731;DHT22;35622;52.008;5.426;2022-11-21T02:32:43;8.10;73.40
49731;DHT22;35622;52.008;5.426;2022-11-21T02:35:15;8.20;72.80
49731;DHT22;35622;52.008;5.426;2022-11-21T02:37:42;8.00;72.70
49731;DHT22;35622;52.008;5.426;2022-11-21T02:40:13;8.00;73.40
49731;DHT22;35622;52.008;5.426;2022-11-21T02:45:54;8.00;72.00
49731;DHT22;35622;52.008;5.426;2022-11-21T02:48:01;7.90;73.00
49731;DHT22;35622;52.008;5.426;2022-11-21T02:50:37;7.60;73.30
49731;DHT22;35622;52.008;5.426;2022-11-21T02:53:05;7.60;74.60
49731;DHT22;35622;52.008;5.426;2022-11-21T02:55:30;7.60;74.80
49731;DHT22;35622;52.008;5.426;2022-11-21T02:57:56;7.60;74.50
49731;DHT22;35622;52.008;5.426;2022-11-21T03:00:22;7.60;74.50
49731;DHT22;35622;52.008;5.426;2022-11-21T03:02:49;7.70;73.90
49731;DHT22;35622;52.008;5.426;2022-11-21T03:05:16;7.40;74.00
49731;DHT22;35622;52.008;5.426;2022-11-21T03:07:42;7.60;74.10
49731;DHT22;35622;52.008;5.426;2022-11-21T03:10:08;7.70;73.50
49731;DHT22;35622;52.008;5.426;2022-11-21T03:12:38;7.60;73.50
49731;DHT22;35622;52.008;5.426;2022-11-21T03:15:05;7.70;73.60
49731;DHT22;35622;52.008;5.426;2022-11-21T03:17:32;7.50;73.90
49731;DHT22;35622;52.008;5.426;2022-11-21T03:19:57;7.30;74.90
49731;DHT22;35622;52.008;5.426;2022-11-21T03:22:23;7.20;75.50
49731;DHT22;35622;52.008;5.426;2022-11-21T03:24:48;7.30;76.00
49731;DHT22;35622;52.008;5.426;2022-11-21T03:27:14;7.20;75.90
49731;DHT22;35622;52.008;5.426;2022-11-21T03:29:39;7.30;75.60
49731;DHT22;35622;52.008;5.426;2022-11-21T03:32:05;7.40;75.60
49731;DHT22;35622;52.008;5.426;2022-11-21T03:34:31;7.50;74.70
49731;DHT22;35622;52.008;5.426;2022-11-21T03:36:56;7.20;74.90
49731;DHT22;35622;52.008;5.426;2022-11-21T03:39:22;7.20;76.20
49731;DHT22;35622;52.008;5.426;2022-11-21T03:41:47;7.20;74.90
49731;DHT22;35622;52.008;5.426;2022-11-21T03:44:13;7.50;75.40
49731;DHT22;35622;52.008;5.426;2022-11-21T03:46:43;7.50;74.20
49731;DHT22;35622;52.008;5.426;2022-11-21T03:49:10;7.20;74.60
49731;DHT22;35622;52.008;5.426;2022-11-21T03:51:37;7.30;75.50
49731;DHT22;35622;52.008;5.426;2022-11-21T03:54:04;7.10;75.80
49731;DHT22;35622;52.008;5.426;2022-11-21T03:56:30;7.20;75.80
49731;DHT22;35622;52.008;5.426;2022-11-21T03:58:55;7.30;75.30
49731;DHT22;35622;52.008;5.426;2022-11-21T04:01:21;7.30;75.60
49731;DHT22;35622;52.008;5.426;2022-11-21T04:03:47;7.40;75.40
49731;DHT22;35622;52.008;5.426;2022-11-21T04:06:15;7.60;75.20
49731;DHT22;35622;52.008;5.426;2022-11-21T04:08:40;7.50;74.90
49731;DHT22;35622;52.008;5.426;2022-11-21T04:11:06;7.60;75.00
49731;DHT22;35622;52.008;5.426;2022-11-21T04:13:32;7.50;75.10
49731;DHT22;35622;52.008;5.426;2022-11-21T04:15:58;7.70;75.10
49731;DHT22;35622;52.008;5.426;2022-11-21T04:18:24;7.90;74.10
49731;DHT22;35622;52.008;5.426;2022-11-21T04:20:55;7.70;73.70
49731;DHT22;35622;52.008;5.426;2022-11-21T04:23:21;7.70;75.30
49731;DHT22;35622;52.008;5.426;2022-11-21T04:25:46;7.80;74.50
49731;DHT22;35622;52.008;5.426;2022-11-21T04:28:12;7.70;74.30
49731;DHT22;35622;52.008;5.426;2022-11-21T04:30:39;7.80;74.60
49731;DHT22;35622;52.008;5.426;2022-11-21T04:33:04;7.70;74.20
49731;DHT22;35622;52.008;5.426;2022-11-21T04:35:30;7.60;74.80
49731;DHT22;35622;52.008;5.426;2022-11-21T04:37:55;7.80;75.00
49731;DHT22;35622;52.008;5.426;2022-11-21T04:40:21;7.90;74.30
49731;DHT22;35622;52.008;5.426;2022-11-21T04:42:47;7.90;73.60
49731;DHT22;35622;52.008;5.426;2022-11-21T04:45:14;7.70;74.50
49731;DHT22;35622;52.008;5.426;2022-11-21T04:47:42;7.60;74.70
49731;DHT22;35622;52.008;5.426;2022-11-21T04:50:10;7.60;75.30
49731;DHT22;35622;52.008;5.426;2022-11-21T04:52:36;7.40;75.80
49731;DHT22;35622;52.008;5.426;2022-11-21T04:55:02;7.70;75.60
49731;DHT22;35622;52.008;5.426;2022-11-21T04:57:28;7.70;75.50
49731;DHT22;35622;52.008;5.426;2022-11-21T04:59:54;7.60;75.80
49731;DHT22;35622;52.008;5.426;2022-11-21T05:02:20;7.40;76.30
49731;DHT22;35622;52.008;5.426;2022-11-21T05:04:46;7.30;76.60
49731;DHT22;35622;52.008;5.426;2022-11-21T05:07:12;7.30;77.00
49731;DHT22;35622;52.008;5.426;2022-11-21T05:09:38;7.50;77.30
49731;DHT22;35622;52.008;5.426;2022-11-21T05:12:04;7.60;76.70
49731;DHT22;35622;52.008;5.426;2022-11-21T05:14:48;7.80;76.70
49731;DHT22;35622;52.008;5.426;2022-11-21T05:17:14;7.90;76.20
49731;DHT22;35622;52.008;5.426;2022-11-21T05:19:39;8.00;75.50
49731;DHT22;35622;52.008;5.426;2022-11-21T05:22:05;8.00;75.20
49731;DHT22;35622;52.008;5.426;2022-11-21T05:24:30;8.10;75.10
49731;DHT22;35622;52.008;5.426;2022-11-21T05:26:56;8.10;74.10
49731;DHT22;35622;52.008;5.426;2022-11-21T05:29:21;7.90;74.60
49731;DHT22;35622;52.008;5.426;2022-11-21T05:31:47;7.90;75.10
49731;DHT22;35622;52.008;5.426;2022-11-21T05:34:12;7.90;75.70
49731;DHT22;35622;52.008;5.426;2022-11-21T05:36:38;8.00;75.80
49731;DHT22;35622;52.008;5.426;2022-11-21T05:39:03;8.10;75.40
49731;DHT22;35622;52.008;5.426;2022-11-21T05:41:29;8.10;75.00
49731;DHT22;35622;52.008;5.426;2022-11-21T05:43:55;8.00;75.10
49731;DHT22;35622;52.008;5.426;2022-11-21T05:46:24;8.00;75.50
49731;DHT22;35622;52.008;5.426;2022-11-21T05:48:52;8.20;75.10
49731;DHT22;35622;52.008;5.426;2022-11-21T05:51:18;8.10;76.00
49731;DHT22;35622;52.008;5.426;2022-11-21T05:53:44;8.10;75.10
49731;DHT22;35622;52.008;5.426;2022-11-21T05:56:12;8.20;75.30
49731;DHT22;35622;52.008;5.426;2022-11-21T05:58:38;8.10;75.10
49731;DHT22;35622;52.008;5.426;2022-11-21T06:01:05;7.90;76.70
49731;DHT22;35622;52.008;5.426;2022-11-21T06:03:35;7.90;75.10
49731;DHT22;35622;52.008;5.426;2022-11-21T06:06:14;7.80;76.50
49731;DHT22;35622;52.008;5.426;2022-11-21T06:08:45;7.90;76.60
49731;DHT22;35622;52.008;5.426;2022-11-21T06:11:12;8.00;76.50
49731;DHT22;35622;52.008;5.426;2022-11-21T06:13:38;8.10;76.30
49731;DHT22;35622;52.008;5.426;2022-11-21T06:16:15;8.30;75.80
49731;DHT22;35622;52.008;5.426;2022-11-21T06:18:45;8.20;75.80
49731;DHT22;35622;52.008;5.426;2022-11-21T06:21:19;8.30;75.40
49731;DHT22;35622;52.008;5.426;2022-11-21T06:23:46;8.50;74.50
49731;DHT22;35622;52.008;5.426;2022-11-21T06:26:14;8.30;74.30
49731;DHT22;35622;52.008;5.426;2022-11-21T06:28:41;8.40;74.60
49731;DHT22;35622;52.008;5.426;2022-11-21T06:31:12;8.50;73.80
49731;DHT22;35622;52.008;5.426;2022-11-21T06:33:38;8.10;74.50
49731;DHT22;35622;52.008;5.426;2022-11-21T06:36:10;8.00;76.00
49731;DHT22;35622;52.008;5.426;2022-11-21T06:38:35;8.10;76.10
49731;DHT22;35622;52.008;5.426;2022-11-21T06:41:12;8.20;76.10
49731;DHT22;35622;52.008;5.426;2022-11-21T06:43:38;8.10;76.20
49731;DHT22;35622;52.008;5.426;2022-11-21T06:46:04;8.10;76.40
49731;DHT22;35622;52.008;5.426;2022-11-21T06:48:33;8.30;76.30
49731;DHT22;35622;52.008;5.426;2022-11-21T06:51:06;8.40;75.30
49731;DHT22;35622;52.008;5.426;2022-11-21T06:53:33;8.40;75.50
49731;DHT22;35622;52.008;5.426;2022-11-21T06:56:00;8.30;75.90
49731;DHT22;35622;52.008;5.426;2022-11-21T06:58:26;8.30;76.20
49731;DHT22;35622;52.008;5.426;2022-11-21T07:00:52;8.40;76.30
49731;DHT22;35622;52.008;5.426;2022-11-21T07:03:18;8.40;76.30
49731;DHT22;35622;52.008;5.426;2022-11-21T07:05:43;8.10;75.70
49731;DHT22;35622;52.008;5.426;2022-11-21T07:08:09;7.90;76.60
49731;DHT22;35622;52.008;5.426;2022-11-21T07:10:35;7.80;77.90
49731;DHT22;35622;52.008;5.426;2022-11-21T07:13:00;7.80;78.30
49731;DHT22;35622;52.008;5.426;2022-11-21T07:15:45;7.90;78.00
49731;DHT22;35622;52.008;5.426;2022-11-21T07:18:11;8.20;77.70
49731;DHT22;35622;52.008;5.426;2022-11-21T07:20:37;8.20;76.90
49731;DHT22;35622;52.008;5.426;2022-11-21T07:23:03;8.30;77.20
49731;DHT22;35622;52.008;5.426;2022-11-21T07:25:28;8.40;76.70
49731;DHT22;35622;52.008;5.426;2022-11-21T07:27:57;8.30;76.20
49731;DHT22;35622;52.008;5.426;2022-11-21T07:30:23;8.30;76.70
49731;DHT22;35622;52.008;5.426;2022-11-21T07:32:57;8.50;76.20
49731;DHT22;35622;52.008;5.426;2022-11-21T07:35:23;8.50;76.00
49731;DHT22;35622;52.008;5.426;2022-11-21T07:37:49;8.50;76.10
49731;DHT22;35622;52.008;5.426;2022-11-21T07:40:14;8.60;75.70
49731;DHT22;35622;52.008;5.426;2022-11-21T07:42:40;8.50;75.80
49731;DHT22;35622;52.008;5.426;2022-11-21T07:45:06;8.50;76.20
49731;DHT22;35622;52.008;5.426;2022-11-21T07:47:31;8.70;75.40
49731;DHT22;35622;52.008;5.426;2022-11-21T07:49:57;8.40;76.50
49731;DHT22;35622;52.008;5.426;2022-11-21T07:52:22;8.40;76.90
49731;DHT22;35622;52.008;5.426;2022-11-21T07:54:49;8.40;77.10
49731;DHT22;35622;52.008;5.426;2022-11-21T07:57:15;8.60;76.80
49731;DHT22;35622;52.008;5.426;2022-11-21T07:59:40;8.40;77.60
49731;DHT22;35622;52.008;5.426;2022-11-21T08:02:06;8.00;79.70
49731;DHT22;35622;52.008;5.426;2022-11-21T08:04:31;8.40;78.60
49731;DHT22;35622;52.008;5.426;2022-11-21T08:06:57;8.60;78.10
49731;DHT22;35622;52.008;5.426;2022-11-21T08:09:26;8.70;78.80
49731;DHT22;35622;52.008;5.426;2022-11-21T08:11:52;8.70;77.50
49731;DHT22;35622;52.008;5.426;2022-11-21T08:14:18;8.80;77.60
49731;DHT22;35622;52.008;5.426;2022-11-21T08:16:43;8.90;77.20
49731;DHT22;35622;52.008;5.426;2022-11-21T08:19:09;9.10;76.50
49731;DHT22;35622;52.008;5.426;2022-11-21T08:21:34;9.30;76.00
49731;DHT22;35622;52.008;5.426;2022-11-21T08:24:00;8.80;76.70
49731;DHT22;35622;52.008;5.426;2022-11-21T08:26:25;8.50;78.70
49731;DHT22;35622;52.008;5.426;2022-11-21T08:28:51;8.80;78.70
49731;DHT22;35622;52.008;5.426;2022-11-21T08:31:16;8.90;78.10
49731;DHT22;35622;52.008;5.426;2022-11-21T08:33:42;9.00;78.10
49731;DHT22;35622;52.008;5.426;2022-11-21T08:36:08;9.10;77.20
49731;DHT22;35622;52.008;5.426;2022-11-21T08:38:33;9.10;77.10
49731;DHT22;35622;52.008;5.426;2022-11-21T08:40:59;8.90;77.30
49731;DHT22;35622;52.008;5.426;2022-11-21T08:43:43;9.10;78.50
49731;DHT22;35622;52.008;5.426;2022-11-21T08:46:09;9.30;78.20
49731;DHT22;35622;52.008;5.426;2022-11-21T08:48:34;9.50;77.90
49731;DHT22;35622;52.008;5.426;2022-11-21T08:51:00;9.30;78.20
49731;DHT22;35622;52.008;5.426;2022-11-21T08:53:25;9.60;78.20
49731;DHT22;35622;52.008;5.426;2022-11-21T08:55:52;9.90;77.00
49731;DHT22;35622;52.008;5.426;2022-11-21T08:58:18;9.80;76.30
49731;DHT22;35622;52.008;5.426;2022-11-21T09:00:43;9.90;76.20
49731;DHT22;35622;52.008;5.426;2022-11-21T09:03:09;9.10;77.60
49731;DHT22;35622;52.008;5.426;2022-11-21T09:05:34;9.10;79.20
49731;DHT22;35622;52.008;5.426;2022-11-21T09:08:00;9.30;79.50
49731;DHT22;35622;52.008;5.426;2022-11-21T09:10:26;9.50;78.60
49731;DHT22;35622;52.008;5.426;2022-11-21T09:12:52;9.40;78.80
49731;DHT22;35622;52.008;5.426;2022-11-21T09:15:17;9.70;79.30
49731;DHT22;35622;52.008;5.426;2022-11-21T09:18:03;10.10;78.30
49731;DHT22;35622;52.008;5.426;2022-11-21T09:20:30;10.40;76.70
49731;DHT22;35622;52.008;5.426;2022-11-21T09:22:56;10.40;76.30
49731;DHT22;35622;52.008;5.426;2022-11-21T09:25:21;10.40;75.90
49731;DHT22;35622;52.008;5.426;2022-11-21T09:27:47;10.30;76.70
49731;DHT22;35622;52.008;5.426;2022-11-21T09:30:13;10.50;76.20
49731;DHT22;35622;52.008;5.426;2022-11-21T09:32:38;10.40;75.10
49731;DHT22;35622;52.008;5.426;2022-11-21T09:35:04;10.50;76.10
49731;DHT22;35622;52.008;5.426;2022-11-21T09:37:38;10.50;76.40
49731;DHT22;35622;52.008;5.426;2022-11-21T09:40:04;10.80;76.30
49731;DHT22;35622;52.008;5.426;2022-11-21T09:47:39;11.20;75.30
49731;DHT22;35622;52.008;5.426;2022-11-21T09:57:56;11.10;75.40
49731;DHT22;35622;52.008;5.426;2022-11-21T10:00:24;11.00;74.50
49731;DHT22;35622;52.008;5.426;2022-11-21T10:02:51;10.80;75.20
49731;DHT22;35622;52.008;5.426;2022-11-21T10:05:24;11.00;75.80
49731;DHT22;35622;52.008;5.426;2022-11-21T10:07:54;11.20;75.00
49731;DHT22;35622;52.008;5.426;2022-11-21T10:13:17;11.10;75.10
49731;DHT22;35622;52.008;5.426;2022-11-21T10:16:08;11.20;75.00
49731;DHT22;35622;52.008;5.426;2022-11-21T10:19:02;10.80;75.30
49731;DHT22;35622;52.008;5.426;2022-11-21T10:24:26;11.00;76.20
49731;DHT22;35622;52.008;5.426;2022-11-21T10:27:11;11.30;76.50
49731;DHT22;35622;52.008;5.426;2022-11-21T10:29:54;11.60;75.30
49731;DHT22;35622;52.008;5.426;2022-11-21T10:32:26;11.50;75.10
49731;DHT22;35622;52.008;5.426;2022-11-21T10:34:57;11.80;74.40
49731;DHT22;35622;52.008;5.426;2022-11-21T10:37:37;11.70;74.80
49731;DHT22;35622;52.008;5.426;2022-11-21T10:43:01;11.70;75.20
49731;DHT22;35622;52.008;5.426;2022-11-21T10:45:51;11.80;74.20
49731;DHT22;35622;52.008;5.426;2022-11-21T10:48:17;11.80;74.80
49731;DHT22;35622;52.008;5.426;2022-11-21T10:53:25;11.90;74.80
49731;DHT22;35622;52.008;5.426;2022-11-21T10:56:16;12.20;74.60
49731;DHT22;35622;52.008;5.426;2022-11-21T10:58:45;12.10;73.80
49731;DHT22;35622;52.008;5.426;2022-11-21T11:01:31;12.20;74.20
49731;DHT22;35622;52.008;5.426;2022-11-21T11:06:36;12.20;74.20
49731;DHT22;35622;52.008;5.426;2022-11-21T11:09:03;12.50;73.70
49731;DHT22;35622;52.008;5.426;2022-11-21T11:11:29;12.80;72.30
49731;DHT22;35622;52.008;5.426;2022-11-21T11:14:05;12.80;72.10
49731;DHT22;35622;52.008;5.426;2022-11-21T11:16:34;12.90;73.10
49731;DHT22;35622;52.008;5.426;2022-11-21T11:26:57;13.50;69.10
49731;DHT22;35622;52.008;5.426;2022-11-21T11:29:27;13.10;70.30
49731;DHT22;35622;52.008;5.426;2022-11-21T11:32:18;13.30;70.30
49731;DHT22;35622;52.008;5.426;2022-11-21T11:37:47;13.20;70.80
49731;DHT22;35622;52.008;5.426;2022-11-21T11:40:34;12.80;71.80
49731;DHT22;35622;52.008;5.426;2022-11-21T11:46:43;13.40;72.10
49731;DHT22;35622;52.008;5.426;2022-11-21T11:49:41;13.70;70.00
49731;DHT22;35622;52.008;5.426;2022-11-21T11:52:35;14.00;70.50
49731;DHT22;35622;52.008;5.426;2022-11-21T11:55:18;13.80;69.60
49731;DHT22;35622;52.008;5.426;2022-11-21T11:57:48;14.40;68.60
49731;DHT22;35622;52.008;5.426;2022-11-21T12:03:07;14.30;68.60
49731;DHT22;35622;52.008;5.426;2022-11-21T12:05:49;14.20;67.10
49731;DHT22;35622;52.008;5.426;2022-11-21T12:08:22;14.10;67.20
49731;DHT22;35622;52.008;5.426;2022-11-21T12:10:54;13.70;67.10
49731;DHT22;35622;52.008;5.426;2022-11-21T12:13:40;13.30;69.50
49731;DHT22;35622;52.008;5.426;2022-11-21T12:16:09;13.90;70.30
49731;DHT22;35622;52.008;5.426;2022-11-21T12:21:15;14.00;69.90
49731;DHT22;35622;52.008;5.426;2022-11-21T12:29:24;14.00;69.50
49731;DHT22;35622;52.008;5.426;2022-11-21T12:32:05;14.10;67.90
49731;DHT22;35622;52.008;5.426;2022-11-21T12:37:47;13.90;67.40
49731;DHT22;35622;52.008;5.426;2022-11-21T12:43:35;13.20;67.70
49731;DHT22;35622;52.008;5.426;2022-11-21T12:46:14;13.10;69.20
49731;DHT22;35622;52.008;5.426;2022-11-21T12:55:03;12.50;71.70
49731;DHT22;35622;52.008;5.426;2022-11-21T12:57:53;12.60;71.10
49731;DHT22;35622;52.008;5.426;2022-11-21T13:03:43;12.50;71.90
49731;DHT22;35622;52.008;5.426;2022-11-21T13:06:23;12.50;72.30
49731;DHT22;35622;52.008;5.426;2022-11-21T13:08:51;12.80;71.70
49731;DHT22;35622;52.008;5.426;2022-11-21T13:14:12;13.00;71.00
49731;DHT22;35622;52.008;5.426;2022-11-21T13:16:42;13.10;71.20
49731;DHT22;35622;52.008;5.426;2022-11-21T13:21:47;13.20;70.50
49731;DHT22;35622;52.008;5.426;2022-11-21T13:27:39;13.30;69.50
49731;DHT22;35622;52.008;5.426;2022-11-21T13:32:54;13.30;68.10
49731;DHT22;35622;52.008;5.426;2022-11-21T13:45:50;13.50;67.60
49731;DHT22;35622;52.008;5.426;2022-11-21T13:49:18;13.00;67.90
49731;DHT22;35622;52.008;5.426;2022-11-21T14:07:40;12.20;72.00
49731;DHT22;35622;52.008;5.426;2022-11-21T14:10:32;12.00;72.40
49731;DHT22;35622;52.008;5.426;2022-11-21T14:13:00;11.80;73.00
49731;DHT22;35622;52.008;5.426;2022-11-21T14:18:00;11.60;74.70
49731;DHT22;35622;52.008;5.426;2022-11-21T14:20:33;11.70;74.60
49731;DHT22;35622;52.008;5.426;2022-11-21T14:23:11;11.70;74.30
49731;DHT22;35622;52.008;5.426;2022-11-21T14:28:08;11.70;73.40
49731;DHT22;35622;52.008;5.426;2022-11-21T14:30:37;11.50;74.60
49731;DHT22;35622;52.008;5.426;2022-11-21T14:35:52;11.60;75.00
49731;DHT22;35622;52.008;5.426;2022-11-21T14:38:20;11.80;74.30
49731;DHT22;35622;52.008;5.426;2022-11-21T14:40:46;11.40;74.10
49731;DHT22;35622;52.008;5.426;2022-11-21T14:43:31;11.80;74.90
49731;DHT22;35622;52.008;5.426;2022-11-21T14:45:57;11.70;74.30
49731;DHT22;35622;52.008;5.426;2022-11-21T14:48:28;11.50;75.00
49731;DHT22;35622;52.008;5.426;2022-11-21T14:50:55;11.10;75.50
49731;DHT22;35622;52.008;5.426;2022-11-21T14:53:22;11.30;76.50
49731;DHT22;35622;52.008;5.426;2022-11-21T14:55:49;11.60;75.90
49731;DHT22;35622;52.008;5.426;2022-11-21T14:58:16;11.60;74.80
49731;DHT22;35622;52.008;5.426;2022-11-21T15:01:04;11.50;75.70
49731;DHT22;35622;52.008;5.426;2022-11-21T15:03:30;11.20;76.80
49731;DHT22;35622;52.008;5.426;2022-11-21T15:06:01;11.40;76.90
49731;DHT22;35622;52.008;5.426;2022-11-21T15:08:27;11.20;76.70
49731;DHT22;35622;52.008;5.426;2022-11-21T15:10:54;11.20;76.30
49731;DHT22;35622;52.008;5.426;2022-11-21T15:13:23;11.10;77.70
49731;DHT22;35622;52.008;5.426;2022-11-21T15:15:52;10.90;77.20
49731;DHT22;35622;52.008;5.426;2022-11-21T15:18:26;10.80;77.80
49731;DHT22;35622;52.008;5.426;2022-11-21T15:20:55;11.00;77.70
49731;DHT22;35622;52.008;5.426;2022-11-21T15:23:33;11.40;76.30
49731;DHT22;35622;52.008;5.426;2022-11-21T15:26:00;11.60;75.20
49731;DHT22;35622;52.008;5.426;2022-11-21T15:28:27;11.00;76.90
49731;DHT22;35622;52.008;5.426;2022-11-21T15:31:18;11.20;76.10
49731;DHT22;35622;52.008;5.426;2022-11-21T15:36:22;11.30;76.20
49731;DHT22;35622;52.008;5.426;2022-11-21T15:39:00;11.30;75.10
49731;DHT22;35622;52.008;5.426;2022-11-21T15:41:35;11.50;74.90
49731;DHT22;35622;52.008;5.426;2022-11-21T15:46:36;11.10;74.00
49731;DHT22;35622;52.008;5.426;2022-11-21T15:49:10;11.30;74.80
49731;DHT22;35622;52.008;5.426;2022-11-21T15:51:45;11.40;73.90
49731;DHT22;35622;52.008;5.426;2022-11-21T15:54:16;11.60;74.10
49731;DHT22;35622;52.008;5.426;2022-11-21T15:56:42;11.70;72.00
49731;DHT22;35622;52.008;5.426;2022-11-21T15:59:08;11.70;71.80
49731;DHT22;35622;52.008;5.426;2022-11-21T16:01:34;11.30;72.60
49731;DHT22;35622;52.008;5.426;2022-11-21T16:04:03;11.00;73.70
49731;DHT22;35622;52.008;5.426;2022-11-21T16:06:29;10.60;74.90
49731;DHT22;35622;52.008;5.426;2022-11-21T16:08:59;10.80;75.30
49731;DHT22;35622;52.008;5.426;2022-11-21T16:11:35;10.60;75.70
49731;DHT22;35622;52.008;5.426;2022-11-21T16:14:12;10.70;74.90
49731;DHT22;35622;52.008;5.426;2022-11-21T16:16:40;10.70;75.10
49731;DHT22;35622;52.008;5.426;2022-11-21T16:19:06;10.60;75.00
49731;DHT22;35622;52.008;5.426;2022-11-21T16:21:32;10.60;74.60
49731;DHT22;35622;52.008;5.426;2022-11-21T16:23:57;10.20;76.20
49731;DHT22;35622;52.008;5.426;2022-11-21T16:26:23;10.60;76.30
49731;DHT22;35622;52.008;5.426;2022-11-21T16:28:56;11.00;74.60
49731;DHT22;35622;52.008;5.426;2022-11-21T16:31:24;10.90;74.20
49731;DHT22;35622;52.008;5.426;2022-11-21T16:33:50;10.60;74.40
49731;DHT22;35622;52.008;5.426;2022-11-21T16:36:20;10.20;77.00
49731;DHT22;35622;52.008;5.426;2022-11-21T16:38:46;10.70;75.60
49731;DHT22;35622;52.008;5.426;2022-11-21T16:41:12;10.40;75.60
49731;DHT22;35622;52.008;5.426;2022-11-21T16:43:47;10.30;75.90
49731;DHT22;35622;52.008;5.426;2022-11-21T16:46:14;10.20;77.60
49731;DHT22;35622;52.008;5.426;2022-11-21T16:48:39;10.30;77.50
49731;DHT22;35622;52.008;5.426;2022-11-21T16:51:11;10.10;77.00
49731;DHT22;35622;52.008;5.426;2022-11-21T16:53:38;10.10;78.80
49731;DHT22;35622;52.008;5.426;2022-11-21T16:56:03;10.30;77.20
49731;DHT22;35622;52.008;5.426;2022-11-21T16:58:29;10.20;77.30
49731;DHT22;35622;52.008;5.426;2022-11-21T17:00:55;10.60;76.70
49731;DHT22;35622;52.008;5.426;2022-11-21T17:03:20;10.30;76.90
49731;DHT22;35622;52.008;5.426;2022-11-21T17:05:56;10.50;77.00
49731;DHT22;35622;52.008;5.426;2022-11-21T17:08:22;10.50;76.70
49731;DHT22;35622;52.008;5.426;2022-11-21T17:10:47;10.40;77.00
49731;DHT22;35622;52.008;5.426;2022-11-21T17:13:13;10.60;77.40
49731;DHT22;35622;52.008;5.426;2022-11-21T17:15:38;10.40;77.60
49731;DHT22;35622;52.008;5.426;2022-11-21T17:18:04;10.40;77.30
49731;DHT22;35622;52.008;5.426;2022-11-21T17:20:29;10.40;77.60
49731;DHT22;35622;52.008;5.426;2022-11-21T17:22:55;10.20;79.40
49731;DHT22;35622;52.008;5.426;2022-11-21T17:25:20;10.30;79.10
49731;DHT22;35622;52.008;5.426;2022-11-21T17:27:46;9.90;80.30
49731;DHT22;35622;52.008;5.426;2022-11-21T17:30:12;10.10;80.10
49731;DHT22;35622;52.008;5.426;2022-11-21T17:32:38;10.40;79.10
49731;DHT22;35622;52.008;5.426;2022-11-21T17:35:04;10.50;77.70
49731;DHT22;35622;52.008;5.426;2022-11-21T17:37:30;10.50;78.30
49731;DHT22;35622;52.008;5.426;2022-11-21T17:39:55;10.20;78.40
49731;DHT22;35622;52.008;5.426;2022-11-21T17:42:21;10.30;79.10
49731;DHT22;35622;52.008;5.426;2022-11-21T17:44:48;10.60;77.80
49731;DHT22;35622;52.008;5.426;2022-11-21T17:47:13;10.40;77.50
49731;DHT22;35622;52.008;5.426;2022-11-21T17:49:39;10.60;77.10
49731;DHT22;35622;52.008;5.426;2022-11-21T17:52:05;10.50;77.70
49731;DHT22;35622;52.008;5.426;2022-11-21T17:54:31;10.50;77.90
49731;DHT22;35622;52.008;5.426;2022-11-21T17:56:57;10.70;77.50
49731;DHT22;35622;52.008;5.426;2022-11-21T17:59:23;10.80;76.50
49731;DHT22;35622;52.008;5.426;2022-11-21T18:01:49;10.80;76.30